createdAt,value
2019-01-24T00:02:22.436Z,73.92
2019-01-24T00:09:16.402Z,73.97
2019-01-24T00:11:47.501Z,74.28
2019-01-24T00:18:06.394Z,75.33
2019-01-24T00:20:38.373Z,74.76
2019-01-24T00:23:09.228Z,75.45
2019-01-24T00:25:40.050Z,75.69
2019-01-24T00:28:10.841Z,75.63
2019-01-24T00:30:41.989Z,74.59
2019-01-24T00:33:13.014Z,75.99
2019-01-24T00:35:44.080Z,77.34
2019-01-24T00:38:15.333Z,76.88
2019-01-24T00:40:46.105Z,77.29
2019-01-24T00:43:17.196Z,76.61
2019-01-24T00:45:47.979Z,75.45
2019-01-24T00:48:19.336Z,76.84
2019-01-24T00:50:50.396Z,77.38
2019-01-24T00:53:21.247Z,76.52
2019-01-24T00:55:52.020Z,76.30
2019-01-24T00:58:23.348Z,76.45
2019-01-24T01:00:54.353Z,75.36
2019-01-24T01:03:25.155Z,75.09
2019-01-24T01:05:56.067Z,76.05
2019-01-24T01:08:27.815Z,75.54
2019-01-24T01:10:58.666Z,75.65
2019-01-24T01:13:29.753Z,74.75
2019-01-24T01:16:00.522Z,76.06
2019-01-24T01:18:31.308Z,75.96
2019-01-24T01:21:02.149Z,74.53
2019-01-24T01:23:33.165Z,74.62
2019-01-24T01:26:04.085Z,72.95
2019-01-24T01:28:35.445Z,74.24
2019-01-24T01:31:06.767Z,75.28
2019-01-24T01:33:38.717Z,74.89
2019-01-24T01:36:09.821Z,75.59
2019-01-24T01:38:40.612Z,74.59
2019-01-24T01:41:11.574Z,74.35
2019-01-24T01:43:42.367Z,74.35
2019-01-24T01:46:13.468Z,74.57
2019-01-24T01:48:44.415Z,74.68
2019-01-24T01:51:15.535Z,74.95
2019-01-24T01:53:48.129Z,75.06
2019-01-24T01:56:19.171Z,74.51
2019-01-24T01:58:50.526Z,73.46
2019-01-24T02:01:21.304Z,74.05
2019-01-24T02:03:52.633Z,74.29
2019-01-24T02:06:23.708Z,73.88
2019-01-24T02:08:54.515Z,74.34
2019-01-24T02:11:25.669Z,74.97
2019-01-24T02:13:56.787Z,74.51
2019-01-24T02:16:27.716Z,73.93
2019-01-24T02:18:58.580Z,71.88
2019-01-24T02:21:30.227Z,72.69
2019-01-24T02:24:01.329Z,73.70
2019-01-24T02:26:32.095Z,74.86
2019-01-24T02:29:03.122Z,74.29
2019-01-24T02:31:37.100Z,74.32
2019-01-24T02:34:07.962Z,73.83
2019-01-24T02:36:38.750Z,73.96
2019-01-24T02:39:09.846Z,74.35
2019-01-24T02:41:40.650Z,73.47
2019-01-24T02:44:11.465Z,73.41
2019-01-24T02:46:42.761Z,74.40
2019-01-24T02:49:13.547Z,73.64
2019-01-24T02:51:44.409Z,74.19
2019-01-24T02:54:15.234Z,73.85
2019-01-24T02:56:46.568Z,75.46
2019-01-24T02:59:17.369Z,74.98
2019-01-24T03:01:48.681Z,75.85
2019-01-24T03:04:19.770Z,76.62
2019-01-24T03:06:50.780Z,76.58
2019-01-24T03:09:22.031Z,76.09
2019-01-24T03:11:53.966Z,76.71
2019-01-24T03:14:24.999Z,76.91
2019-01-24T03:16:55.840Z,76.45
2019-01-24T03:19:26.868Z,76.52
2019-01-24T03:21:57.877Z,76.64
2019-01-24T03:24:29.021Z,76.50
2019-01-24T03:27:00.096Z,76.50
2019-01-24T03:29:31.126Z,77.12
2019-01-24T03:32:02.176Z,76.74
2019-01-24T03:34:33.280Z,77.90
2019-01-24T03:37:04.423Z,76.76
2019-01-24T03:39:35.447Z,77.83
2019-01-24T03:42:06.478Z,78.05
2019-01-24T03:44:38.022Z,78.12
2019-01-24T03:47:09.178Z,76.85
2019-01-24T03:49:40.525Z,78.57
2019-01-24T03:52:11.340Z,79.35
2019-01-24T03:54:42.458Z,79.75
2019-01-24T03:57:13.537Z,77.41
2019-01-24T03:59:44.406Z,77.77
2019-01-24T04:02:15.345Z,78.77
2019-01-24T04:04:46.835Z,79.05
2019-01-24T04:07:18.592Z,79.50
2019-01-24T04:09:49.441Z,79.76
2019-01-24T04:12:20.330Z,80.36
2019-01-24T04:14:51.187Z,81.12
2019-01-24T04:17:22.212Z,81.55
2019-01-24T04:19:53.298Z,81.74
2019-01-24T04:22:24.557Z,82.16
2019-01-24T04:24:55.584Z,82.39
2019-01-24T04:27:26.596Z,82.39
2019-01-24T04:29:57.763Z,82.64
2019-01-24T04:32:28.531Z,82.91
2019-01-24T04:34:59.330Z,83.63
2019-01-24T04:37:30.341Z,82.98
2019-01-24T04:40:01.402Z,82.87
2019-01-24T04:42:32.170Z,82.52
2019-01-24T04:45:02.961Z,82.61
2019-01-24T04:47:33.969Z,82.58
2019-01-24T04:50:05.486Z,82.51
2019-01-24T04:52:36.334Z,82.36
2019-01-24T04:55:08.663Z,82.68
2019-01-24T04:57:39.747Z,82.64
2019-01-24T05:00:14.190Z,82.98
2019-01-24T05:02:45.046Z,82.77
2019-01-24T05:05:16.143Z,83.11
2019-01-24T05:07:47.087Z,83.20
2019-01-24T05:10:18.124Z,83.28
2019-01-24T05:12:49.373Z,83.82
2019-01-24T05:15:20.431Z,82.81
2019-01-24T05:17:51.444Z,82.33
2019-01-24T05:20:22.303Z,82.76
2019-01-24T05:22:53.166Z,83.11
2019-01-24T05:25:24.272Z,83.30
2019-01-24T05:27:55.340Z,83.22
2019-01-24T05:30:27.745Z,82.27
2019-01-24T05:32:59.894Z,83.05
2019-01-24T05:35:34.874Z,82.08
2019-01-24T05:38:03.656Z,81.78
2019-01-24T05:40:34.759Z,82.63
2019-01-24T05:43:05.851Z,82.32
2019-01-24T05:45:36.635Z,82.61
2019-01-24T05:48:07.427Z,82.16
2019-01-24T05:50:38.232Z,82.39
2019-01-24T05:53:09.050Z,82.41
2019-01-24T05:55:40.022Z,80.20
2019-01-24T05:58:11.277Z,80.47
2019-01-24T06:00:44.722Z,79.40
2019-01-24T06:03:15.730Z,78.57
2019-01-24T06:05:47.067Z,80.37
2019-01-24T06:08:18.048Z,78.39
2019-01-24T06:10:49.956Z,77.98
2019-01-24T06:13:21.011Z,78.47
2019-01-24T06:15:52.048Z,77.78
2019-01-24T06:18:23.364Z,77.12
2019-01-24T06:20:54.321Z,77.69
2019-01-24T06:23:25.411Z,77.10
2019-01-24T06:25:56.270Z,77.50
2019-01-24T06:28:27.045Z,76.87
2019-01-24T06:30:57.984Z,77.89
2019-01-24T06:33:28.985Z,78.64
2019-01-24T06:36:00.231Z,78.66
2019-01-24T06:38:31.299Z,79.03
2019-01-24T06:41:02.103Z,78.27
2019-01-24T06:43:32.880Z,77.59
2019-01-24T06:46:03.830Z,78.59
2019-01-24T06:48:35.210Z,78.71
2019-01-24T06:51:06.173Z,78.73
2019-01-24T06:53:37.096Z,79.77
2019-01-24T06:56:08.335Z,79.01
2019-01-24T06:58:39.191Z,79.40
2019-01-24T07:01:09.998Z,79.51
2019-01-24T07:03:40.867Z,79.26
2019-01-24T07:06:11.772Z,79.71
2019-01-24T07:08:42.877Z,79.38
2019-01-24T07:11:13.791Z,79.03
2019-01-24T07:13:45.381Z,78.64
2019-01-24T07:16:16.383Z,78.70
2019-01-24T07:18:47.241Z,78.11
2019-01-24T07:21:18.024Z,78.17
2019-01-24T07:23:49.064Z,78.93
2019-01-24T07:26:20.242Z,78.75
2019-01-24T07:28:51.142Z,79.20
2019-01-24T07:31:22.040Z,78.21
2019-01-24T07:33:53.337Z,78.16
2019-01-24T07:36:24.403Z,78.86
2019-01-24T07:38:55.217Z,78.91
2019-01-24T07:41:26.048Z,79.07
2019-01-24T07:43:57.219Z,79.81
2019-01-24T07:46:29.281Z,79.55
2019-01-24T07:49:00.245Z,80.04
2019-01-24T07:51:31.364Z,79.77
2019-01-24T07:54:02.477Z,79.09
2019-01-24T07:56:33.245Z,79.21
2019-01-24T07:59:04.578Z,79.03
2019-01-24T08:01:35.774Z,78.67
2019-01-24T08:04:06.873Z,78.58
2019-01-24T08:06:37.651Z,77.94
2019-01-24T08:09:09.144Z,78.14
2019-01-24T08:11:39.914Z,78.10
2019-01-24T08:14:11.451Z,77.99
2019-01-24T08:16:42.299Z,78.20
2019-01-24T08:19:13.152Z,77.56
2019-01-24T08:21:43.966Z,76.89
2019-01-24T08:24:14.951Z,76.79
2019-01-24T08:26:46.016Z,77.65
2019-01-24T08:29:17.042Z,77.83
2019-01-24T08:31:48.053Z,77.46
2019-01-24T08:34:18.862Z,78.56
2019-01-24T08:36:49.902Z,78.55
2019-01-24T08:39:20.772Z,78.60
2019-01-24T08:41:51.638Z,78.26
2019-01-24T08:44:22.489Z,78.24
2019-01-24T08:46:53.345Z,79.52
2019-01-24T08:49:24.139Z,80.14
2019-01-24T08:51:55.163Z,79.14
2019-01-24T08:54:29.735Z,79.05
2019-01-24T08:56:58.981Z,79.85
2019-01-24T08:59:30.057Z,79.36
2019-01-24T09:02:01.998Z,80.35
2019-01-24T09:04:32.802Z,80.56
2019-01-24T09:07:03.848Z,80.94
2019-01-24T09:09:35.503Z,80.44
2019-01-24T09:12:06.433Z,79.81
2019-01-24T09:14:37.292Z,80.80
2019-01-24T09:17:08.553Z,80.62
2019-01-24T09:19:39.416Z,80.27
2019-01-24T09:22:10.198Z,78.07
2019-01-24T09:24:41.464Z,79.33
2019-01-24T09:27:12.228Z,79.48
2019-01-24T09:29:43.156Z,80.27
2019-01-24T09:32:14.401Z,78.33
2019-01-24T09:34:45.268Z,78.81
2019-01-24T09:37:16.134Z,77.56
2019-01-24T09:39:47.006Z,77.31
2019-01-24T09:42:18.133Z,76.69
2019-01-24T09:44:49.094Z,77.68
2019-01-24T09:47:19.969Z,79.92
2019-01-24T09:49:50.906Z,81.04
2019-01-24T09:52:22.012Z,79.73
2019-01-24T09:54:52.797Z,79.84
2019-01-24T09:57:23.716Z,79.97
2019-01-24T09:59:54.516Z,80.31
2019-01-24T10:02:25.549Z,79.40
2019-01-24T10:04:58.939Z,80.62
2019-01-24T10:07:29.957Z,80.88
2019-01-24T10:10:00.797Z,79.50
2019-01-24T10:12:31.577Z,81.05
2019-01-24T10:15:02.664Z,80.98
2019-01-24T10:17:33.848Z,81.01
2019-01-24T10:20:06.386Z,81.76
2019-01-24T10:22:37.374Z,81.25
2019-01-24T10:25:15.571Z,79.29
2019-01-24T10:27:46.487Z,80.35
2019-01-24T10:30:18.957Z,79.89
2019-01-24T10:32:49.895Z,80.55
2019-01-24T10:35:20.831Z,80.85
2019-01-24T10:37:51.788Z,79.67
2019-01-24T10:40:24.621Z,81.38
2019-01-24T10:42:55.697Z,80.86
2019-01-24T10:45:26.566Z,80.77
2019-01-24T10:47:57.665Z,78.45
2019-01-24T10:50:28.972Z,79.86
2019-01-24T10:52:59.824Z,79.66
2019-01-24T10:55:31.112Z,81.03
2019-01-24T10:58:02.896Z,78.50
2019-01-24T11:00:36.510Z,78.93
2019-01-24T11:03:09.501Z,80.46
2019-01-24T11:05:40.361Z,80.67
2019-01-24T11:08:11.477Z,81.56
2019-01-24T11:10:42.661Z,80.94
2019-01-24T11:13:13.593Z,82.01
2019-01-24T11:15:44.466Z,81.35
2019-01-24T11:18:15.319Z,80.66
2019-01-24T11:20:46.259Z,81.28
2019-01-24T11:23:17.075Z,80.45
2019-01-24T11:25:48.023Z,80.86
2019-01-24T11:28:18.950Z,81.07
2019-01-24T11:30:49.993Z,79.91
2019-01-24T11:33:21.018Z,80.18
2019-01-24T11:35:51.898Z,81.02
2019-01-24T11:38:23.149Z,79.81
2019-01-24T11:40:53.921Z,79.81
2019-01-24T11:43:24.769Z,80.47
2019-01-24T11:45:55.588Z,79.58
2019-01-24T11:48:26.369Z,80.01
2019-01-24T11:50:57.388Z,78.54
2019-01-24T11:53:28.161Z,79.09
2019-01-24T11:55:59.184Z,78.13
2019-01-24T11:58:29.963Z,77.58
2019-01-24T12:01:01.031Z,79.02
2019-01-24T12:03:32.108Z,78.61
2019-01-24T12:06:03.277Z,78.14
2019-01-24T12:08:34.291Z,78.82
2019-01-24T12:11:05.682Z,78.94
2019-01-24T12:13:36.937Z,77.82
2019-01-24T12:16:07.737Z,77.66
2019-01-24T12:18:38.537Z,75.95
2019-01-24T12:21:09.324Z,77.29
2019-01-24T12:23:40.305Z,76.20
2019-01-24T12:26:11.414Z,77.19
2019-01-24T12:28:42.416Z,79.38
2019-01-24T12:31:13.197Z,78.58
2019-01-24T12:33:43.972Z,76.47
2019-01-24T12:36:15.352Z,76.20
2019-01-24T12:38:46.106Z,77.01
2019-01-24T12:41:17.270Z,76.72
2019-01-24T12:43:48.154Z,76.11
2019-01-24T12:46:18.930Z,76.10
2019-01-24T12:48:50.037Z,76.51
2019-01-24T12:51:20.812Z,75.15
2019-01-24T12:53:51.604Z,76.86
2019-01-24T12:56:22.449Z,76.65
2019-01-24T12:58:53.414Z,76.03
2019-01-24T13:01:24.195Z,75.23
2019-01-24T13:03:54.997Z,76.38
2019-01-24T13:06:26.191Z,75.44
2019-01-24T13:08:57.033Z,75.87
2019-01-24T13:11:27.881Z,76.08
2019-01-24T13:13:58.680Z,74.18
2019-01-24T13:16:29.753Z,74.49
2019-01-24T13:19:00.616Z,71.86
2019-01-24T13:21:31.389Z,73.21
2019-01-24T13:24:02.185Z,72.55
2019-01-24T13:26:33.197Z,73.35
2019-01-24T13:29:07.237Z,73.41
2019-01-24T13:31:38.097Z,73.93
2019-01-24T13:34:09.254Z,72.70
2019-01-24T13:36:40.128Z,73.17
2019-01-24T13:39:11.605Z,73.43
2019-01-24T13:41:42.822Z,73.08
2019-01-24T13:44:13.653Z,73.39
2019-01-24T13:46:44.478Z,73.85
2019-01-24T13:49:15.563Z,73.81
2019-01-24T13:51:46.585Z,74.17
2019-01-24T13:54:17.407Z,73.28
2019-01-24T13:56:48.460Z,74.88
2019-01-24T13:59:19.297Z,73.20
2019-01-24T14:01:50.521Z,74.43
2019-01-24T14:04:25.776Z,74.99
2019-01-24T14:06:56.546Z,75.28
2019-01-24T14:09:27.563Z,74.43
2019-01-24T14:11:58.565Z,73.48
2019-01-24T14:14:29.639Z,73.72
2019-01-24T14:17:00.411Z,73.29
2019-01-24T14:19:31.563Z,72.08
2019-01-24T14:22:02.633Z,73.15
2019-01-24T14:24:34.700Z,72.91
2019-01-24T14:27:05.626Z,73.53
2019-01-24T14:29:36.503Z,72.24
2019-01-24T14:32:07.780Z,72.91
2019-01-24T14:34:39.623Z,73.37
2019-01-24T14:37:10.589Z,74.17
2019-01-24T14:39:41.948Z,74.40
2019-01-24T14:42:12.794Z,74.04
2019-01-24T14:44:43.893Z,73.57
2019-01-24T14:47:14.668Z,73.30
2019-01-24T14:49:45.736Z,73.55
2019-01-24T14:52:16.509Z,74.15
2019-01-24T14:54:47.607Z,74.41
2019-01-24T14:57:18.385Z,74.46
2019-01-24T14:59:49.321Z,73.91
2019-01-24T15:02:20.388Z,73.86
2019-01-24T15:04:51.404Z,73.46
2019-01-24T15:07:22.248Z,74.27
2019-01-24T15:09:53.349Z,74.35
2019-01-24T15:12:24.125Z,74.36
2019-01-24T15:14:55.156Z,74.39
2019-01-24T15:17:26.084Z,73.92
2019-01-24T15:19:56.865Z,74.73
2019-01-24T15:22:27.734Z,74.79
2019-01-24T15:24:58.883Z,73.58
2019-01-24T15:27:29.649Z,74.25
2019-01-24T15:30:00.667Z,73.95
2019-01-24T15:32:31.504Z,73.94
2019-01-24T15:35:02.493Z,75.32
2019-01-24T15:37:33.435Z,75.28
2019-01-24T15:40:06.881Z,75.10
2019-01-24T15:42:37.901Z,74.52
2019-01-24T15:45:10.153Z,75.19
2019-01-24T15:47:40.926Z,75.71
2019-01-24T15:50:13.275Z,75.41
2019-01-24T15:52:44.362Z,75.07
2019-01-24T15:55:15.446Z,76.30
2019-01-24T15:57:46.427Z,75.32
2019-01-24T16:00:20.559Z,75.15
2019-01-24T16:02:51.488Z,75.79
2019-01-24T16:05:22.427Z,74.93
2019-01-24T16:07:53.547Z,75.50
2019-01-24T16:10:24.678Z,74.84
2019-01-24T16:12:55.832Z,74.84
2019-01-24T16:15:31.520Z,75.16
2019-01-24T16:18:02.446Z,74.84
2019-01-24T16:20:33.315Z,75.12
2019-01-24T16:23:04.160Z,75.19
2019-01-24T16:25:35.293Z,76.19
2019-01-24T16:28:06.248Z,75.99
2019-01-24T16:30:37.789Z,75.13
2019-01-24T16:33:09.143Z,75.51
2019-01-24T16:35:40.288Z,75.51
2019-01-24T16:38:11.218Z,76.04
2019-01-24T16:40:42.096Z,76.54
2019-01-24T16:43:12.876Z,77.20
2019-01-24T16:45:43.733Z,76.77
2019-01-24T16:48:14.620Z,77.89
2019-01-24T16:50:45.636Z,77.42
2019-01-24T16:53:16.485Z,77.18
2019-01-24T16:55:48.315Z,76.92
2019-01-24T16:58:19.464Z,78.36
2019-01-24T17:01:18.088Z,78.74
2019-01-24T17:03:48.870Z,78.62
2019-01-24T17:06:19.966Z,78.46
2019-01-24T17:08:53.060Z,78.32
2019-01-24T17:11:24.104Z,77.92
2019-01-24T17:13:54.874Z,78.62
2019-01-24T17:16:25.875Z,79.51
2019-01-24T17:18:56.873Z,80.47
2019-01-24T17:21:28.095Z,79.84
2019-01-24T17:23:58.984Z,80.21
2019-01-24T17:26:29.870Z,80.73
2019-01-24T17:29:00.880Z,80.01
2019-01-24T17:31:31.969Z,79.90
2019-01-24T17:34:03.092Z,80.67
2019-01-24T17:36:33.974Z,80.96
2019-01-24T17:39:08.735Z,81.28
2019-01-24T17:41:40.479Z,81.23
2019-01-24T17:44:11.571Z,80.76
2019-01-24T17:46:42.441Z,81.43
2019-01-24T17:49:13.208Z,81.50
2019-01-24T17:51:44.073Z,80.54
2019-01-24T17:54:15.137Z,81.55
2019-01-24T17:56:46.226Z,80.99
2019-01-24T17:59:17.310Z,80.66
2019-01-24T18:01:48.404Z,81.00
2019-01-24T18:04:21.819Z,80.58
2019-01-24T18:06:51.752Z,80.56
2019-01-24T18:09:22.536Z,80.90
2019-01-24T18:11:53.338Z,81.68
2019-01-24T18:14:24.326Z,81.42
2019-01-24T18:16:55.118Z,81.67
2019-01-24T18:19:26.135Z,81.90
2019-01-24T18:21:57.261Z,82.02
2019-01-24T18:24:28.038Z,82.91
2019-01-24T18:26:59.002Z,81.75
2019-01-24T18:29:30.089Z,82.34
2019-01-24T18:32:01.379Z,82.71
2019-01-24T18:34:32.448Z,82.18
2019-01-24T18:37:03.251Z,81.95
2019-01-24T18:39:34.171Z,82.09
2019-01-24T18:42:05.110Z,82.74
2019-01-24T18:44:36.064Z,80.94
2019-01-24T18:47:07.153Z,80.91
2019-01-24T18:49:37.934Z,81.89
2019-01-24T18:52:09.032Z,81.72
2019-01-24T18:54:39.849Z,82.49
2019-01-24T18:57:10.644Z,82.65
2019-01-24T18:59:42.711Z,82.60
2019-01-24T19:02:13.765Z,82.48
2019-01-24T19:04:44.686Z,82.29
2019-01-24T19:07:15.514Z,82.69
2019-01-24T19:09:46.357Z,83.02
2019-01-24T19:12:17.585Z,82.92
2019-01-24T19:14:48.929Z,83.44
2019-01-24T19:17:20.104Z,83.41
2019-01-24T19:19:51.760Z,83.41
2019-01-24T19:22:22.773Z,83.43
2019-01-24T19:24:53.602Z,83.79
2019-01-24T19:27:24.701Z,84.05
2019-01-24T19:29:55.554Z,84.08
2019-01-24T19:32:26.420Z,83.26
2019-01-24T19:34:57.339Z,82.61
2019-01-24T19:37:28.328Z,83.31
2019-01-24T19:39:59.287Z,83.04
2019-01-24T19:42:30.081Z,83.55
2019-01-24T19:45:01.378Z,83.97
2019-01-24T19:47:32.457Z,83.54
2019-01-24T19:50:03.545Z,83.70
2019-01-24T19:52:34.384Z,83.99
2019-01-24T19:55:06.149Z,83.73
2019-01-24T19:57:37.357Z,83.75
2019-01-24T20:00:12.320Z,83.55
2019-01-24T20:02:43.405Z,82.11
2019-01-24T20:05:15.097Z,82.09
2019-01-24T20:07:46.653Z,82.32
2019-01-24T20:10:19.088Z,82.79
2019-01-24T20:12:50.003Z,83.73
2019-01-24T20:15:22.693Z,83.22
2019-01-24T20:17:53.934Z,83.39
2019-01-24T20:20:25.180Z,83.80
2019-01-24T20:22:56.238Z,83.38
2019-01-24T20:25:28.592Z,84.21
2019-01-24T20:27:59.443Z,83.47
2019-01-24T20:30:31.621Z,83.91
2019-01-24T20:33:02.832Z,83.79
2019-01-24T20:35:42.772Z,83.61
2019-01-24T20:38:13.715Z,83.51
2019-01-24T20:40:44.596Z,83.56
2019-01-24T20:43:16.153Z,82.40
2019-01-24T20:45:47.013Z,82.58
2019-01-24T20:48:18.118Z,83.54
2019-01-24T20:50:49.123Z,83.68
2019-01-24T20:53:19.989Z,84.19
2019-01-24T20:55:51.030Z,84.01
2019-01-24T20:58:22.074Z,83.68
2019-01-24T21:00:53.087Z,83.32
2019-01-24T21:03:24.259Z,83.09
2019-01-24T21:05:55.358Z,83.93
2019-01-24T21:08:26.605Z,84.15
2019-01-24T21:10:57.516Z,84.24
2019-01-24T21:13:28.302Z,84.32
2019-01-24T21:15:59.147Z,84.65
2019-01-24T21:18:30.046Z,83.75
2019-01-24T21:21:00.918Z,84.19
2019-01-24T21:23:31.953Z,83.82
2019-01-24T21:26:02.958Z,83.74
2019-01-24T21:28:33.744Z,83.97
2019-01-24T21:31:04.713Z,83.63
2019-01-24T21:33:35.977Z,82.60
2019-01-24T21:36:06.902Z,83.16
2019-01-24T21:38:37.757Z,83.66
2019-01-24T21:41:08.545Z,84.29
2019-01-24T21:43:39.586Z,84.38
2019-01-24T21:46:10.462Z,84.90
2019-01-24T21:48:41.552Z,84.84
2019-01-24T21:51:12.405Z,84.42
2019-01-24T21:53:43.405Z,84.46
2019-01-24T21:56:14.270Z,85.01
2019-01-24T21:58:45.325Z,84.78
2019-01-24T22:01:16.100Z,85.15
2019-01-24T22:03:47.126Z,84.64
2019-01-24T22:06:18.058Z,84.34
2019-01-24T22:08:48.867Z,84.38
2019-01-24T22:11:19.759Z,84.74
2019-01-24T22:13:50.815Z,85.17
2019-01-24T22:16:21.738Z,84.31
2019-01-24T22:18:53.026Z,84.72
2019-01-24T22:21:23.795Z,85.27
2019-01-24T22:23:54.593Z,85.03
2019-01-24T22:26:25.444Z,85.15
2019-01-24T22:28:56.786Z,85.06
2019-01-24T22:31:27.640Z,85.08
2019-01-24T22:33:58.497Z,85.39
2019-01-24T22:36:29.278Z,84.67
2019-01-24T22:39:00.146Z,85.28
2019-01-24T22:41:31.040Z,85.14
2019-01-24T22:44:01.845Z,84.41
2019-01-24T22:46:33.588Z,85.57
2019-01-24T22:49:04.465Z,85.48
2019-01-24T22:51:35.242Z,85.01
2019-01-24T22:54:06.481Z,85.48
2019-01-24T22:56:37.834Z,85.40
2019-01-24T22:59:08.962Z,85.15
2019-01-24T23:01:44.640Z,85.07
2019-01-24T23:04:18.169Z,85.09
2019-01-24T23:06:49.491Z,84.96
2019-01-24T23:09:22.183Z,85.09
2019-01-24T23:11:53.077Z,84.52
2019-01-24T23:14:23.941Z,84.85
2019-01-24T23:16:54.789Z,85.24
2019-01-24T23:19:25.834Z,84.97
2019-01-24T23:21:56.681Z,84.44
2019-01-24T23:24:27.480Z,84.91
2019-01-24T23:26:58.408Z,85.16
2019-01-24T23:29:29.282Z,85.36
2019-01-24T23:32:00.130Z,85.02
2019-01-24T23:34:30.998Z,84.61
2019-01-24T23:37:04.912Z,85.25
2019-01-24T23:39:36.303Z,85.45
2019-01-24T23:42:07.227Z,85.58
2019-01-24T23:44:38.157Z,85.48
2019-01-24T23:47:09.244Z,85.47
2019-01-24T23:49:40.036Z,85.82
2019-01-24T23:52:10.979Z,85.76
2019-01-24T23:54:42.059Z,85.65
2019-01-24T23:57:12.832Z,85.88
2019-01-24T23:59:43.877Z,85.46
